Terminal Aerodrome Forecast
Issued by NWS Jackson, MS

Home | Current Version | Previous Version | Text Only | Print | Product List | Glossary On
Versions: 1 2 3 4 5 6 7 8 9 10 11 12 13
095
FTUS44 KMEG 141733
TAFTUP
TAF
KTUP 141733Z 1418/1518 17010KT P6SM OVC045
     FM150200 19008KT P6SM VCSH SCT025 OVC035
      TEMPO 1504/1508 P6SM -SHRA BKN025
     FM150800 20008KT 6SM BR VCSH BKN009 OVC015
     FM151200 19009KT 3SM -RA BR OVC007=

USA.gov is the U.S. government's official web portal to all federal, state and local government web resources and services.